createdAt,value
2022-11-14T00:00:54.521Z,101883.13
2022-11-14T00:03:21.151Z,101876.34
2022-11-14T00:05:47.925Z,101871.00
2022-11-14T00:08:23.015Z,101874.56
2022-11-14T00:10:50.852Z,101860.72
2022-11-14T00:13:19.678Z,101854.56
2022-11-14T00:15:50.421Z,101863.19
2022-11-14T00:18:18.117Z,101861.41
2022-11-14T00:20:47.954Z,101865.94
2022-11-14T00:23:14.508Z,101854.78
2022-11-14T00:25:40.989Z,101865.22
2022-11-14T00:28:07.497Z,101858.56
2022-11-14T00:30:33.988Z,101862.13
2022-11-14T00:33:00.517Z,101856.78
2022-11-14T00:35:27.032Z,101862.00
2022-11-14T00:37:53.742Z,101862.13
2022-11-14T00:40:20.319Z,101865.69
2022-11-14T00:42:46.825Z,101867.56
2022-11-14T00:45:13.332Z,101868.41
2022-11-14T00:47:39.962Z,101874.69
2022-11-14T00:50:07.069Z,101873.00
2022-11-14T00:52:33.530Z,101869.81
2022-11-14T00:55:00.024Z,101861.16
2022-11-14T00:57:26.451Z,101862.13
2022-11-14T00:59:55.679Z,101859.66
2022-11-14T01:02:22.652Z,101843.41
2022-11-14T01:04:49.197Z,101847.78
2022-11-14T01:07:15.688Z,101843.66
2022-11-14T01:09:42.166Z,101833.69
2022-11-14T01:12:08.605Z,101841.50
2022-11-14T01:14:35.099Z,101831.09
2022-11-14T01:17:01.633Z,101826.81
2022-11-14T01:19:28.082Z,101822.53
2022-11-14T01:21:54.539Z,101824.31
2022-11-14T01:24:21.034Z,101820.19
2022-11-14T01:26:47.565Z,101821.38
2022-11-14T01:29:14.201Z,101810.97
2022-11-14T01:31:40.752Z,101813.66
2022-11-14T01:34:07.273Z,101810.22
2022-11-14T01:36:33.761Z,101799.09
2022-11-14T01:39:00.314Z,101794.00
2022-11-14T01:41:26.827Z,101789.63
2022-11-14T01:43:53.310Z,101774.97
2022-11-14T01:46:28.446Z,101780.53
2022-11-14T01:49:12.733Z,101782.75
2022-11-14T01:51:41.126Z,101785.59
2022-11-14T01:54:14.405Z,101781.22
2022-11-14T01:56:46.941Z,101770.78
2022-11-14T01:59:22.919Z,101767.25
2022-11-14T02:01:52.374Z,101765.72
2022-11-14T02:04:41.213Z,101758.00
2022-11-14T02:07:08.456Z,101747.72
2022-11-14T02:09:38.721Z,101748.69
2022-11-14T02:12:08.763Z,101744.41
2022-11-14T02:14:37.136Z,101742.88
2022-11-14T02:17:27.816Z,101743.09
2022-11-14T02:19:53.214Z,101743.19
2022-11-14T02:22:19.767Z,101746.88
2022-11-14T02:24:46.573Z,101753.13
2022-11-14T02:27:15.312Z,101743.91
2022-11-14T02:29:41.876Z,101741.53
2022-11-14T02:32:10.917Z,101735.63
2022-11-14T02:34:38.191Z,101732.31
2022-11-14T02:37:04.759Z,101729.94
2022-11-14T02:39:31.234Z,101727.31
2022-11-14T02:41:57.707Z,101728.50
2022-11-14T02:44:24.222Z,101729.66
2022-11-14T02:46:50.643Z,101725.66
2022-11-14T02:49:17.222Z,101718.78
2022-11-14T02:51:44.021Z,101723.03
2022-11-14T02:54:10.522Z,101724.00
2022-11-14T02:56:37.113Z,101722.44
2022-11-14T02:59:03.609Z,101719.94
2022-11-14T03:01:30.123Z,101719.25
2022-11-14T03:03:56.630Z,101723.72
2022-11-14T03:06:23.139Z,101729.03
2022-11-14T03:08:49.609Z,101723.94
2022-11-14T03:11:16.045Z,101723.00
2022-11-14T03:13:42.552Z,101716.97
2022-11-14T03:16:11.611Z,101712.00
2022-11-14T03:18:38.635Z,101715.66
2022-11-14T03:21:10.100Z,101712.44
2022-11-14T03:23:36.685Z,101695.06
2022-11-14T03:26:05.749Z,101701.22
2022-11-14T03:28:32.529Z,101698.97
2022-11-14T03:30:59.357Z,101701.66
2022-11-14T03:33:25.895Z,101705.44
2022-11-14T03:35:53.323Z,101690.78
2022-11-14T03:38:23.165Z,101692.66
2022-11-14T03:40:53.546Z,101685.81
2022-11-14T03:43:21.376Z,101678.34
2022-11-14T03:45:48.532Z,101679.31
2022-11-14T03:48:15.224Z,101675.25
2022-11-14T03:50:43.366Z,101675.38
2022-11-14T03:53:11.279Z,101670.31
2022-11-14T03:55:38.955Z,101673.94
2022-11-14T03:58:05.592Z,101672.38
2022-11-14T04:00:32.228Z,101666.38
2022-11-14T04:02:58.782Z,101665.66
2022-11-14T04:05:25.348Z,101663.16
2022-11-14T04:07:52.024Z,101651.13
2022-11-14T04:10:18.975Z,101647.69
2022-11-14T04:12:49.875Z,101658.78
2022-11-14T04:15:17.331Z,101656.09
2022-11-14T04:17:44.868Z,101647.56
2022-11-14T04:20:12.418Z,101652.91
2022-11-14T04:22:39.749Z,101649.69
2022-11-14T04:25:08.105Z,101639.50
2022-11-14T04:27:34.847Z,101630.16
2022-11-14T04:30:01.400Z,101638.09
2022-11-14T04:32:27.959Z,101643.38
2022-11-14T04:34:54.438Z,101647.66
2022-11-14T04:37:20.933Z,101641.63
2022-11-14T04:39:47.425Z,101643.38
2022-11-14T04:42:13.958Z,101636.75
2022-11-14T04:44:40.546Z,101637.91
2022-11-14T04:47:07.331Z,101628.25
2022-11-14T04:49:33.812Z,101627.31
2022-11-14T04:52:00.279Z,101619.38
2022-11-14T04:54:26.758Z,101619.28
2022-11-14T04:56:53.373Z,101617.66
2022-11-14T04:59:21.234Z,101622.84
2022-11-14T05:01:48.060Z,101615.25
2022-11-14T05:04:14.726Z,101611.72
2022-11-14T05:06:41.364Z,101609.25
2022-11-14T05:09:08.090Z,101603.31
2022-11-14T05:11:34.626Z,101600.84
2022-11-14T05:14:01.067Z,101596.56
2022-11-14T05:16:27.548Z,101597.53
2022-11-14T05:18:54.901Z,101597.53
2022-11-14T05:21:21.422Z,101594.22
2022-11-14T05:23:47.872Z,101597.03
2022-11-14T05:26:19.027Z,101592.75
2022-11-14T05:28:45.990Z,101593.72
2022-11-14T05:31:17.681Z,101591.13
2022-11-14T05:33:45.612Z,101592.75
2022-11-14T05:36:14.541Z,101585.22
2022-11-14T05:38:41.577Z,101590.50
2022-11-14T05:41:16.554Z,101588.94
2022-11-14T05:43:44.011Z,101585.66
2022-11-14T05:46:12.406Z,101584.00
2022-11-14T05:48:39.184Z,101583.06
2022-11-14T05:51:07.086Z,101585.75
2022-11-14T05:53:34.691Z,101582.31
2022-11-14T05:56:06.062Z,101583.16
2022-11-14T05:58:33.656Z,101576.22
2022-11-14T06:01:08.478Z,101579.72
2022-11-14T06:03:37.860Z,101583.16
2022-11-14T06:06:06.527Z,101576.22
2022-11-14T06:08:33.768Z,101577.13
2022-11-14T06:11:14.886Z,101575.34
2022-11-14T06:13:41.665Z,101568.66
2022-11-14T06:16:12.152Z,101568.84
2022-11-14T06:18:39.686Z,101566.59
2022-11-14T06:21:12.294Z,101567.44
2022-11-14T06:23:39.362Z,101567.44
2022-11-14T06:26:20.586Z,101570.72
2022-11-14T06:28:49.284Z,101562.03
2022-11-14T06:31:16.948Z,101565.53
2022-11-14T06:33:43.464Z,101562.25
2022-11-14T06:36:11.247Z,101562.13
2022-11-14T06:38:39.527Z,101568.25
2022-11-14T06:41:07.019Z,101572.63
2022-11-14T06:43:39.213Z,101581.22
2022-11-14T06:46:07.064Z,101583.94
2022-11-14T06:48:34.674Z,101581.44
2022-11-14T06:51:02.970Z,101582.41
2022-11-14T06:53:31.705Z,101580.75
2022-11-14T06:56:01.272Z,101586.03
2022-11-14T06:58:37.290Z,101578.47
2022-11-14T07:01:10.889Z,101582.00
2022-11-14T07:03:37.533Z,101577.63
2022-11-14T07:06:05.463Z,101578.38
2022-11-14T07:08:33.312Z,101582.72
2022-11-14T07:11:09.219Z,101580.13
2022-11-14T07:13:36.961Z,101580.84
2022-11-14T07:16:04.801Z,101575.56
2022-11-14T07:18:32.765Z,101578.84
2022-11-14T07:21:03.481Z,101575.56
2022-11-14T07:23:31.788Z,101577.91
2022-11-14T07:26:09.817Z,101588.91
2022-11-14T07:28:38.070Z,101587.03
2022-11-14T07:31:09.574Z,101586.69
2022-11-14T07:33:36.275Z,101579.72
2022-11-14T07:36:02.780Z,101587.31
2022-11-14T07:38:31.499Z,101585.44
2022-11-14T07:41:04.078Z,101579.16
2022-11-14T07:43:31.092Z,101587.69
2022-11-14T07:46:05.547Z,101586.75
2022-11-14T07:48:33.966Z,101584.16
2022-11-14T07:51:01.980Z,101581.44
2022-11-14T07:53:28.952Z,101576.13
2022-11-14T07:55:56.729Z,101574.97
2022-11-14T07:58:23.877Z,101567.78
2022-11-14T08:00:50.418Z,101567.44
2022-11-14T08:03:16.961Z,101568.16
2022-11-14T08:05:43.445Z,101569.59
2022-11-14T08:08:09.926Z,101565.13
2022-11-14T08:10:36.585Z,101563.13
2022-11-14T08:13:30.917Z,101564.56
2022-11-14T08:15:54.726Z,101559.81
2022-11-14T08:18:21.964Z,101561.25
2022-11-14T08:20:49.007Z,101558.44
2022-11-14T08:23:15.562Z,101547.00
2022-11-14T08:25:42.471Z,101543.44
2022-11-14T08:28:09.543Z,101541.56
2022-11-14T08:30:36.190Z,101539.66
2022-11-14T08:33:04.572Z,101544.50
2022-11-14T08:35:31.243Z,101540.84
2022-11-14T08:37:57.709Z,101543.09
2022-11-14T08:40:24.862Z,101540.03
2022-11-14T08:42:51.461Z,101530.81
2022-11-14T08:45:17.981Z,101538.16
2022-11-14T08:47:51.302Z,101537.81
2022-11-14T08:50:17.877Z,101525.63
2022-11-14T08:52:49.996Z,101524.34
2022-11-14T08:55:16.673Z,101526.44
2022-11-14T08:57:46.660Z,101526.06
2022-11-14T09:00:16.329Z,101522.06
2022-11-14T09:02:43.014Z,101525.81
2022-11-14T09:05:09.728Z,101527.00
2022-11-14T09:07:36.377Z,101522.16
2022-11-14T09:10:03.293Z,101518.25
2022-11-14T09:12:29.890Z,101516.66
2022-11-14T09:14:56.383Z,101522.22
2022-11-14T09:17:22.870Z,101522.56
2022-11-14T09:19:49.296Z,101524.41
2022-11-14T09:22:15.862Z,101522.00
2022-11-14T09:24:42.321Z,101513.56
2022-11-14T09:27:09.186Z,101512.84
2022-11-14T09:29:35.681Z,101503.41
2022-11-14T09:32:02.208Z,101506.50
2022-11-14T09:34:28.770Z,101504.19
2022-11-14T09:36:55.241Z,101501.66
2022-11-14T09:39:21.836Z,101496.63
2022-11-14T09:41:57.327Z,101494.75
2022-11-14T09:44:39.170Z,101490.41
2022-11-14T09:47:16.641Z,101486.34
2022-11-14T09:49:49.737Z,101497.91
2022-11-14T09:52:36.878Z,101490.69
2022-11-14T09:55:11.981Z,101480.41
2022-11-14T09:57:40.878Z,101471.91
2022-11-14T10:00:19.597Z,101479.06
2022-11-14T10:02:55.638Z,101484.06
2022-11-14T10:06:00.303Z,101480.63
2022-11-14T10:08:26.758Z,101474.31
2022-11-14T10:10:56.103Z,101483.25
2022-11-14T10:13:34.758Z,101473.22
2022-11-14T10:16:14.874Z,101466.75
2022-11-14T10:18:48.058Z,101463.19
2022-11-14T10:21:36.476Z,101466.88
2022-11-14T10:24:24.768Z,101469.63
2022-11-14T10:27:03.522Z,101462.19
2022-11-14T10:29:57.516Z,101466.31
2022-11-14T10:32:31.653Z,101454.03
2022-11-14T10:35:04.210Z,101445.50
2022-11-14T10:37:37.403Z,101449.63
2022-11-14T10:40:25.959Z,101451.25
2022-11-14T10:43:01.646Z,101445.97
2022-11-14T10:45:34.771Z,101437.84
2022-11-14T10:48:13.633Z,101433.16
2022-11-14T10:50:56.058Z,101434.91
2022-11-14T10:53:32.545Z,101432.22
2022-11-14T10:56:04.658Z,101418.41
2022-11-14T10:58:38.434Z,101416.84
2022-11-14T11:01:34.631Z,101410.50
2022-11-14T11:04:21.745Z,101408.25
2022-11-14T11:06:50.430Z,101410.13
2022-11-14T11:09:43.747Z,101413.81
2022-11-14T11:12:34.804Z,101411.94
2022-11-14T11:15:23.909Z,101405.31
2022-11-14T11:17:57.307Z,101402.97
2022-11-14T11:20:25.617Z,101402.69
2022-11-14T11:23:11.030Z,101405.38
2022-11-14T11:25:40.530Z,101397.72
2022-11-14T11:28:19.261Z,101392.03
2022-11-14T11:31:10.853Z,101389.34
2022-11-14T11:33:39.464Z,101386.72
2022-11-14T11:36:20.449Z,101375.75
2022-11-14T11:38:47.513Z,101376.28
2022-11-14T11:42:07.210Z,101373.38
2022-11-14T11:44:20.059Z,101374.84
2022-11-14T11:46:57.761Z,101370.28
2022-11-14T11:49:30.315Z,101371.09
2022-11-14T11:52:04.669Z,101384.25
2022-11-14T11:54:50.842Z,101380.84
2022-11-14T11:57:23.050Z,101377.78
2022-11-14T11:59:54.260Z,101382.88
2022-11-14T12:02:24.421Z,101382.91
2022-11-14T12:04:52.680Z,101384.03
2022-11-14T12:07:32.064Z,101385.69
2022-11-14T12:10:12.360Z,101380.13
2022-11-14T12:12:44.979Z,101380.78
2022-11-14T12:15:28.308Z,101368.81
2022-11-14T12:18:29.099Z,101386.41
2022-11-14T12:21:14.969Z,101381.97
2022-11-14T12:24:12.182Z,101376.56
2022-11-14T12:26:59.503Z,101377.69
2022-11-14T12:29:41.159Z,101377.16
2022-11-14T12:32:13.687Z,101377.81
2022-11-14T12:34:45.559Z,101371.81
2022-11-14T12:37:21.210Z,101372.97
2022-11-14T12:40:25.856Z,101367.41
2022-11-14T12:42:52.725Z,101357.72
2022-11-14T12:45:40.953Z,101357.91
2022-11-14T12:48:25.739Z,101353.78
2022-11-14T12:50:54.255Z,101351.34
2022-11-14T12:53:39.340Z,101359.00
2022-11-14T12:56:24.456Z,101368.47
2022-11-14T12:59:12.805Z,101361.06
2022-11-14T13:01:49.172Z,101353.31
2022-11-14T13:04:19.296Z,101360.81
2022-11-14T13:07:29.925Z,101356.34
2022-11-14T13:10:13.932Z,101358.59
2022-11-14T13:13:22.444Z,101352.19
2022-11-14T13:16:10.163Z,101350.97
2022-11-14T13:19:08.053Z,101341.97
2022-11-14T13:21:46.566Z,101338.94
2022-11-14T13:24:14.369Z,101331.56
2022-11-14T13:26:43.627Z,101320.44
2022-11-14T13:29:41.220Z,101312.56
2022-11-14T13:32:11.883Z,101306.19
2022-11-14T13:34:52.236Z,101311.41
2022-11-14T13:37:52.398Z,101314.03
2022-11-14T13:40:38.172Z,101303.56
2022-11-14T13:43:22.639Z,101302.09
2022-11-14T13:45:58.918Z,101295.06
2022-11-14T13:48:53.292Z,101294.25
2022-11-14T13:51:42.917Z,101291.75
2022-11-14T13:54:17.671Z,101286.50
2022-11-14T13:57:22.330Z,101283.06
2022-11-14T14:00:19.581Z,101275.06
2022-11-14T14:03:09.289Z,101280.81
2022-11-14T14:05:46.274Z,101281.97
2022-11-14T14:08:37.548Z,101290.94
2022-11-14T14:11:31.702Z,101298.97
2022-11-14T14:14:22.643Z,101303.22
2022-11-14T14:16:56.454Z,101306.66
2022-11-14T14:19:26.454Z,101299.78
2022-11-14T14:22:17.376Z,101304.34
2022-11-14T14:25:00.373Z,101309.88
2022-11-14T14:28:00.508Z,101302.00
2022-11-14T14:30:27.332Z,101304.78
2022-11-14T14:33:08.783Z,101302.34
2022-11-14T14:35:40.634Z,101293.63
2022-11-14T14:38:22.744Z,101295.44
2022-11-14T14:40:49.383Z,101295.44
2022-11-14T14:43:35.133Z,101292.00
2022-11-14T14:46:02.038Z,101294.50
2022-11-14T14:48:33.421Z,101274.50
2022-11-14T14:51:02.884Z,101271.06
2022-11-14T14:53:32.289Z,101278.91
2022-11-14T14:56:01.771Z,101277.09
2022-11-14T14:58:31.408Z,101267.31
2022-11-14T15:00:59.884Z,101260.56
2022-11-14T15:03:35.572Z,101262.22
2022-11-14T15:06:30.055Z,101253.41
2022-11-14T15:09:13.878Z,101243.06
2022-11-14T15:11:43.439Z,101237.19
2022-11-14T15:14:15.036Z,101240.09
2022-11-14T15:16:42.729Z,101255.44
2022-11-14T15:19:13.727Z,101255.75
2022-11-14T15:21:40.223Z,101254.78
2022-11-14T15:24:15.440Z,101251.34
2022-11-14T15:26:45.443Z,101254.09
2022-11-14T15:29:23.620Z,101258.22
2022-11-14T15:32:01.929Z,101252.16
2022-11-14T15:34:35.670Z,101243.63
2022-11-14T15:37:20.389Z,101247.91
2022-11-14T15:39:48.089Z,101234.13
2022-11-14T15:42:19.950Z,101239.38
2022-11-14T15:44:47.492Z,101240.47
2022-11-14T15:47:25.427Z,101231.28
2022-11-14T15:49:58.482Z,101227.03
2022-11-14T15:52:24.885Z,101235.06
2022-11-14T15:54:51.445Z,101244.69
2022-11-14T15:57:18.153Z,101247.31
2022-11-14T15:59:44.677Z,101243.72
2022-11-14T16:02:28.872Z,101241.94
2022-11-14T16:04:57.232Z,101245.66
2022-11-14T16:07:24.015Z,101240.59
2022-11-14T16:09:51.437Z,101234.03
2022-11-14T16:12:17.963Z,101241.50
2022-11-14T16:14:45.065Z,101235.38
2022-11-14T16:17:17.230Z,101239.88
2022-11-14T16:19:44.326Z,101245.84
2022-11-14T16:22:17.167Z,101246.59
2022-11-14T16:24:43.693Z,101242.94
2022-11-14T16:27:10.259Z,101246.13
2022-11-14T16:29:36.787Z,101250.19
2022-11-14T16:32:03.654Z,101249.25
2022-11-14T16:34:30.297Z,101237.56
2022-11-14T16:37:01.742Z,101242.44
2022-11-14T16:39:29.055Z,101243.81
2022-11-14T16:42:01.897Z,101234.78
2022-11-14T16:44:28.565Z,101234.25
2022-11-14T16:46:55.118Z,101229.63
2022-11-14T16:49:21.654Z,101224.84
2022-11-14T16:51:50.634Z,101221.97
2022-11-14T16:54:20.909Z,101228.75
2022-11-14T16:56:48.410Z,101222.16
2022-11-14T16:59:14.976Z,101218.03
2022-11-14T17:01:41.693Z,101222.88
2022-11-14T17:04:08.262Z,101216.44
2022-11-14T17:06:34.901Z,101231.84
2022-11-14T17:09:02.078Z,101225.00
2022-11-14T17:11:28.807Z,101219.09
2022-11-14T17:13:56.427Z,101220.31
2022-11-14T17:16:23.457Z,101217.34
2022-11-14T17:18:54.101Z,101224.63
2022-11-14T17:21:21.584Z,101218.88
2022-11-14T17:24:02.806Z,101226.16
2022-11-14T17:26:29.716Z,101223.16
2022-11-14T17:28:56.397Z,101219.19
2022-11-14T17:31:23.068Z,101211.63
2022-11-14T17:33:54.471Z,101216.44
2022-11-14T17:36:22.285Z,101223.88
2022-11-14T17:38:48.973Z,101220.44
2022-11-14T17:41:15.447Z,101217.16
2022-11-14T17:43:42.219Z,101208.09
2022-11-14T17:46:15.660Z,101211.00
2022-11-14T17:48:44.379Z,101205.06
2022-11-14T17:51:13.316Z,101213.75
2022-11-14T17:53:40.352Z,101203.31
2022-11-14T17:56:09.891Z,101201.91
2022-11-14T17:58:36.462Z,101190.13
2022-11-14T18:01:09.498Z,101191.38
2022-11-14T18:03:36.084Z,101181.63
2022-11-14T18:06:14.680Z,101188.22
2022-11-14T18:08:41.281Z,101195.50
2022-11-14T18:11:11.198Z,101194.00
2022-11-14T18:13:38.389Z,101195.91
2022-11-14T18:16:07.913Z,101187.53
2022-11-14T18:18:36.156Z,101193.19
2022-11-14T18:21:10.070Z,101190.03
2022-11-14T18:23:38.617Z,101189.06
2022-11-14T18:26:09.123Z,101185.47
2022-11-14T18:28:35.635Z,101187.16
2022-11-14T18:31:03.569Z,101188.63
2022-11-14T18:33:30.120Z,101181.78
2022-11-14T18:35:59.966Z,101188.63
2022-11-14T18:38:29.963Z,101185.63
2022-11-14T18:40:57.711Z,101179.28
2022-11-14T18:43:24.538Z,101176.56
2022-11-14T18:45:51.200Z,101178.22
2022-11-14T18:48:17.997Z,101182.44
2022-11-14T18:50:44.540Z,101182.44
2022-11-14T18:53:11.051Z,101178.22
2022-11-14T18:55:41.156Z,101165.16
2022-11-14T18:58:08.056Z,101175.59
2022-11-14T19:00:35.253Z,101172.28
2022-11-14T19:03:05.942Z,101170.53
2022-11-14T19:05:35.561Z,101170.66
2022-11-14T19:08:02.137Z,101169.00
2022-11-14T19:10:28.661Z,101164.88
2022-11-14T19:12:55.127Z,101173.41
2022-11-14T19:15:21.642Z,101168.31
2022-11-14T19:17:48.614Z,101169.13
2022-11-14T19:20:15.133Z,101164.22
2022-11-14T19:22:41.764Z,101166.97
2022-11-14T19:25:09.217Z,101163.53
2022-11-14T19:27:35.675Z,101171.78
2022-11-14T19:30:02.181Z,101166.00
2022-11-14T19:32:28.643Z,101175.91
2022-11-14T19:34:55.193Z,101159.97
2022-11-14T19:37:21.660Z,101166.44
2022-11-14T19:39:52.235Z,101172.72
2022-11-14T19:42:18.834Z,101170.69
2022-11-14T19:44:45.382Z,101168.19
2022-11-14T19:47:11.800Z,101172.88
2022-11-14T19:49:38.449Z,101181.91
2022-11-14T19:52:05.264Z,101169.84
2022-11-14T19:54:31.848Z,101176.03
2022-11-14T19:56:58.419Z,101167.38
2022-11-14T19:59:27.868Z,101177.94
2022-11-14T20:01:55.225Z,101173.53
2022-11-14T20:04:22.199Z,101168.59
2022-11-14T20:06:48.744Z,101174.78
2022-11-14T20:09:16.479Z,101170.53
2022-11-14T20:11:42.962Z,101173.00
2022-11-14T20:14:12.167Z,101162.44
2022-11-14T20:16:38.756Z,101165.59
2022-11-14T20:19:05.366Z,101164.09
2022-11-14T20:21:34.052Z,101170.53
2022-11-14T20:24:01.163Z,101173.13
2022-11-14T20:26:27.801Z,101159.16
2022-11-14T20:28:54.819Z,101158.19
2022-11-14T20:31:27.310Z,101155.31
2022-11-14T20:33:54.471Z,101159.53
2022-11-14T20:36:24.022Z,101151.47
2022-11-14T20:38:51.458Z,101149.97
2022-11-14T20:41:18.384Z,101150.66
2022-11-14T20:43:45.307Z,101142.69
2022-11-14T20:46:16.857Z,101145.03
2022-11-14T20:48:44.135Z,101138.44
2022-11-14T20:51:14.663Z,101139.28
2022-11-14T20:53:43.253Z,101133.34
2022-11-14T20:56:10.357Z,101121.72
2022-11-14T20:58:36.918Z,101127.19
2022-11-14T21:01:03.659Z,101124.88
2022-11-14T21:03:30.453Z,101127.75
2022-11-14T21:05:59.820Z,101123.06
2022-11-14T21:08:26.386Z,101126.94
2022-11-14T21:11:00.175Z,101126.22
2022-11-14T21:13:45.902Z,101129.94
2022-11-14T21:16:15.386Z,101121.25
2022-11-14T21:18:47.582Z,101112.72
2022-11-14T21:21:17.305Z,101112.84
2022-11-14T21:23:45.493Z,101109.41
2022-11-14T21:26:14.998Z,101114.06
2022-11-14T21:28:44.565Z,101111.84
2022-11-14T21:31:21.253Z,101121.03
2022-11-14T21:33:49.435Z,101111.94
2022-11-14T21:36:43.339Z,101114.13
2022-11-14T21:39:04.562Z,101123.47
2022-11-14T21:41:31.991Z,101106.41
2022-11-14T21:44:04.206Z,101106.09
2022-11-14T21:46:30.778Z,101107.63
2022-11-14T21:48:57.713Z,101099.66
2022-11-14T21:51:27.528Z,101112.56
2022-11-14T21:53:58.668Z,101112.28
2022-11-14T21:56:27.629Z,101111.28
2022-11-14T21:59:13.183Z,101113.78
2022-11-14T22:02:04.748Z,101111.69
2022-11-14T22:04:32.294Z,101113.34
2022-11-14T22:07:03.367Z,101114.00
2022-11-14T22:09:30.757Z,101117.31
2022-11-14T22:11:58.236Z,101123.34
2022-11-14T22:14:25.459Z,101118.94
2022-11-14T22:16:51.970Z,101112.75
2022-11-14T22:19:18.963Z,101111.63
2022-11-14T22:21:45.861Z,101106.13
2022-11-14T22:24:12.427Z,101099.09
2022-11-14T22:26:40.083Z,101097.31
2022-11-14T22:29:07.532Z,101101.44
2022-11-14T22:31:34.113Z,101092.63
2022-11-14T22:34:01.852Z,101091.53
2022-11-14T22:36:28.979Z,101101.00
2022-11-14T22:38:58.547Z,101102.50
2022-11-14T22:41:31.884Z,101096.47
2022-11-14T22:44:00.004Z,101087.66
2022-11-14T22:46:27.469Z,101095.31
2022-11-14T22:48:54.676Z,101089.97
2022-11-14T22:51:26.150Z,101092.28
2022-11-14T22:53:54.777Z,101089.69
2022-11-14T22:56:23.891Z,101099.00
2022-11-14T22:58:50.858Z,101083.31
2022-11-14T23:01:23.090Z,101091.03
2022-11-14T23:03:55.209Z,101080.28
2022-11-14T23:06:22.583Z,101081.09
2022-11-14T23:08:49.400Z,101079.31
2022-11-14T23:11:19.332Z,101072.97
2022-11-14T23:13:48.671Z,101078.03
2022-11-14T23:16:18.505Z,101083.25
2022-11-14T23:18:45.809Z,101081.16
2022-11-14T23:21:13.900Z,101076.75
2022-11-14T23:23:40.517Z,101070.56
2022-11-14T23:26:10.071Z,101068.63
2022-11-14T23:28:37.067Z,101071.09
2022-11-14T23:31:03.628Z,101069.31
2022-11-14T23:33:30.705Z,101060.50
2022-11-14T23:35:57.495Z,101059.38
2022-11-14T23:38:24.399Z,101053.31
2022-11-14T23:40:59.137Z,101059.22
2022-11-14T23:43:26.355Z,101059.06
2022-11-14T23:45:52.956Z,101064.16
2022-11-14T23:48:20.889Z,101063.19
2022-11-14T23:50:55.380Z,101056.97
2022-11-14T23:53:22.058Z,101054.22
2022-11-14T23:55:56.820Z,101048.19
2022-11-14T23:58:25.069Z,101061.09
